createdAt,value
2018-02-17T00:02:03.310Z,99.90
2018-02-17T00:04:30.914Z,99.90
2018-02-17T00:06:59.185Z,99.90
2018-02-17T00:09:26.695Z,99.90
2018-02-17T00:11:54.195Z,99.90
2018-02-17T00:14:21.713Z,99.90
2018-02-17T00:16:49.210Z,99.90
2018-02-17T00:19:16.722Z,99.90
2018-02-17T00:21:44.222Z,99.90
2018-02-17T00:24:11.734Z,99.90
2018-02-17T00:26:39.248Z,99.90
2018-02-17T00:29:06.771Z,99.90
2018-02-17T00:31:34.270Z,99.90
2018-02-17T00:34:01.791Z,99.90
2018-02-17T00:36:29.298Z,99.90
2018-02-17T00:38:56.921Z,99.90
2018-02-17T00:41:24.416Z,99.90
2018-02-17T00:43:51.931Z,99.90
2018-02-17T00:46:19.466Z,99.90
2018-02-17T00:48:47.744Z,99.90
2018-02-17T00:51:17.026Z,99.90
2018-02-17T00:53:45.302Z,99.90
2018-02-17T00:56:12.805Z,99.90
2018-02-17T00:58:40.338Z,99.90
2018-02-17T01:01:07.836Z,99.90
2018-02-17T01:03:35.333Z,99.90
2018-02-17T01:06:02.850Z,99.90
2018-02-17T01:08:30.359Z,99.90
2018-02-17T01:10:57.872Z,99.90
2018-02-17T01:13:25.362Z,99.90
2018-02-17T01:15:52.868Z,99.90
2018-02-17T01:18:21.145Z,99.90
2018-02-17T01:20:49.442Z,99.90
2018-02-17T01:23:16.950Z,99.90
2018-02-17T01:25:44.458Z,99.90
2018-02-17T01:28:11.984Z,99.90
2018-02-17T01:30:39.599Z,99.90
2018-02-17T01:33:07.091Z,99.90
2018-02-17T01:35:34.599Z,99.90
2018-02-17T01:38:02.904Z,99.90
2018-02-17T01:40:30.418Z,99.90
2018-02-17T01:42:58.674Z,99.90
2018-02-17T01:45:26.241Z,99.90
2018-02-17T01:47:54.507Z,99.90
2018-02-17T01:50:32.930Z,99.90
2018-02-17T01:53:02.666Z,99.90
2018-02-17T01:55:30.943Z,99.90
2018-02-17T01:57:59.199Z,99.90
2018-02-17T02:00:27.494Z,99.90
2018-02-17T02:02:55.762Z,99.90
2018-02-17T02:05:23.265Z,99.90
2018-02-17T02:07:50.782Z,99.90
2018-02-17T02:10:19.047Z,99.90
2018-02-17T02:12:48.054Z,99.90
2018-02-17T02:15:17.330Z,99.90
2018-02-17T02:17:44.850Z,99.90
2018-02-17T02:20:12.356Z,99.90
2018-02-17T02:22:40.642Z,99.90
2018-02-17T02:25:08.134Z,99.90
2018-02-17T02:27:35.657Z,99.90
2018-02-17T02:30:03.159Z,99.90
2018-02-17T02:32:30.681Z,99.90
2018-02-17T02:34:58.222Z,99.90
2018-02-17T02:37:25.734Z,99.90
2018-02-17T02:39:53.255Z,99.90
2018-02-17T02:42:20.774Z,99.90
2018-02-17T02:44:48.270Z,99.90
2018-02-17T02:47:15.786Z,99.90
2018-02-17T02:49:43.295Z,99.90
2018-02-17T02:52:10.825Z,99.90
2018-02-17T02:54:38.332Z,99.90
2018-02-17T02:57:06.610Z,99.90
2018-02-17T02:59:34.893Z,99.90
2018-02-17T03:02:03.154Z,99.90
2018-02-17T03:04:31.434Z,99.90
2018-02-17T03:06:59.698Z,99.90
2018-02-17T03:09:27.214Z,99.90
2018-02-17T03:11:54.717Z,99.90
2018-02-17T03:14:22.229Z,99.90
2018-02-17T03:16:49.718Z,99.90
2018-02-17T03:19:18.002Z,99.90
2018-02-17T03:21:45.554Z,99.90
2018-02-17T03:24:13.078Z,99.90
2018-02-17T03:26:40.575Z,99.90
2018-02-17T03:29:08.097Z,99.90
2018-02-17T03:31:35.596Z,99.90
2018-02-17T03:34:03.121Z,99.90
2018-02-17T03:36:30.617Z,99.90
2018-02-17T03:38:58.146Z,99.90
2018-02-17T03:41:25.638Z,99.90
2018-02-17T03:43:53.894Z,99.90
2018-02-17T03:46:21.403Z,99.90
2018-02-17T03:48:48.930Z,99.90
2018-02-17T03:51:16.435Z,99.90
2018-02-17T03:53:43.946Z,99.90
2018-02-17T03:56:12.323Z,99.90
2018-02-17T03:58:39.822Z,99.90
2018-02-17T04:01:07.358Z,99.90
2018-02-17T04:03:35.617Z,99.90
2018-02-17T04:06:03.140Z,99.90
2018-02-17T04:08:30.638Z,99.90
2018-02-17T04:10:58.154Z,99.90
2018-02-17T04:13:25.641Z,99.90
2018-02-17T04:15:53.154Z,99.90
2018-02-17T04:18:20.653Z,99.90
2018-02-17T04:20:48.158Z,99.90
2018-02-17T04:23:16.420Z,99.90
2018-02-17T04:25:44.694Z,99.90
2018-02-17T04:28:13.974Z,99.90
2018-02-17T04:30:42.250Z,99.90
2018-02-17T04:33:09.755Z,99.90
2018-02-17T04:35:37.265Z,99.90
2018-02-17T04:38:04.782Z,99.90
2018-02-17T04:43:52.606Z,99.90
2018-02-17T04:46:39.808Z,99.90
2018-02-17T04:49:23.010Z,99.90
2018-02-17T04:51:51.341Z,99.90
2018-02-17T04:54:37.429Z,99.90
2018-02-17T04:57:13.228Z,99.90
2018-02-17T04:59:44.703Z,99.90
2018-02-17T05:02:18.014Z,99.90
2018-02-17T05:04:48.042Z,99.90
2018-02-17T05:07:17.133Z,99.90
2018-02-17T05:09:45.437Z,99.90
2018-02-17T05:12:13.681Z,99.90
2018-02-17T05:14:42.915Z,99.90
2018-02-17T05:17:12.220Z,99.90
2018-02-17T05:22:52.105Z,99.90
2018-02-17T05:25:22.523Z,99.90
2018-02-17T05:27:50.862Z,99.90
2018-02-17T05:30:21.594Z,99.90
2018-02-17T05:32:50.790Z,99.90
2018-02-17T05:35:33.951Z,99.90
2018-02-17T05:38:01.463Z,99.90
2018-02-17T05:40:44.615Z,99.90
2018-02-17T05:43:12.175Z,99.90
2018-02-17T05:45:43.435Z,99.90
2018-02-17T05:48:10.946Z,99.90
2018-02-17T05:50:38.443Z,99.90
2018-02-17T05:53:05.969Z,99.90
2018-02-17T05:55:33.461Z,99.90
2018-02-17T05:58:00.975Z,99.90
2018-02-17T06:00:28.478Z,99.90
2018-02-17T06:02:55.989Z,99.90
2018-02-17T06:05:23.474Z,99.90
2018-02-17T06:07:51.751Z,99.90
2018-02-17T06:10:20.010Z,99.90
2018-02-17T06:12:47.517Z,99.90
2018-02-17T06:15:15.011Z,99.90
2018-02-17T06:17:42.516Z,99.90
2018-02-17T06:20:10.094Z,99.90
2018-02-17T06:22:37.611Z,99.90
2018-02-17T06:25:05.106Z,99.90
2018-02-17T06:27:32.637Z,99.90
2018-02-17T06:30:00.896Z,99.90
2018-02-17T06:32:28.490Z,99.90
2018-02-17T06:34:56.010Z,99.90
2018-02-17T06:37:23.510Z,99.90
2018-02-17T06:39:51.031Z,99.90
2018-02-17T06:42:18.527Z,99.90
2018-02-17T06:44:46.051Z,99.90
2018-02-17T06:47:13.547Z,99.90
2018-02-17T06:49:41.063Z,99.90
2018-02-17T06:52:10.065Z,99.90
2018-02-17T06:54:37.572Z,99.90
2018-02-17T06:57:05.116Z,99.90
2018-02-17T06:59:32.810Z,99.90
2018-02-17T07:02:00.335Z,99.90
2018-02-17T07:04:27.859Z,99.90
2018-02-17T07:06:55.367Z,99.90
2018-02-17T07:09:22.862Z,99.90
2018-02-17T07:11:50.511Z,99.90
2018-02-17T07:14:18.830Z,99.90
2018-02-17T07:16:47.151Z,99.90
2018-02-17T07:19:14.646Z,99.90
2018-02-17T07:21:42.158Z,99.90
2018-02-17T07:24:09.654Z,99.80
2018-02-17T07:26:37.182Z,99.90
2018-02-17T07:29:05.610Z,99.80
2018-02-17T07:31:33.105Z,99.70
2018-02-17T07:34:00.635Z,99.50
2018-02-17T07:36:29.806Z,98.90
2018-02-17T07:38:57.495Z,98.90
2018-02-17T07:41:24.962Z,99.00
2018-02-17T07:43:53.379Z,98.70
2018-02-17T07:46:20.879Z,98.70
2018-02-17T07:48:48.371Z,98.40
2018-02-17T07:51:16.654Z,98.40
2018-02-17T07:53:44.181Z,98.40
2018-02-17T07:56:11.690Z,98.40
2018-02-17T07:58:39.190Z,98.30
2018-02-17T08:01:06.711Z,98.40
2018-02-17T08:03:34.212Z,98.60
2018-02-17T08:06:01.710Z,98.20
2018-02-17T08:08:29.231Z,98.50
2018-02-17T08:10:56.827Z,97.80
2018-02-17T08:13:24.346Z,98.10
2018-02-17T08:15:51.839Z,98.00
2018-02-17T08:18:20.117Z,97.70
2018-02-17T08:20:47.634Z,97.70
2018-02-17T08:23:16.006Z,98.00
2018-02-17T08:25:43.509Z,97.60
2018-02-17T08:28:11.766Z,97.50
2018-02-17T08:30:40.053Z,97.30
2018-02-17T08:33:08.314Z,97.30
2018-02-17T08:35:35.838Z,97.20
2018-02-17T08:38:03.383Z,97.50
2018-02-17T08:40:30.894Z,97.00
2018-02-17T08:42:58.425Z,97.30
2018-02-17T08:45:25.947Z,97.10
2018-02-17T08:47:53.497Z,97.20
2018-02-17T08:50:21.753Z,97.10
2018-02-17T08:52:49.265Z,97.10
2018-02-17T08:55:16.846Z,97.40
2018-02-17T08:57:44.334Z,97.20
2018-02-17T09:00:12.623Z,96.80
2018-02-17T09:02:40.885Z,96.90
2018-02-17T09:05:08.390Z,96.90
2018-02-17T09:07:35.886Z,96.80
2018-02-17T09:10:04.912Z,96.80
2018-02-17T09:12:33.177Z,97.00
2018-02-17T09:15:02.446Z,97.00
2018-02-17T09:17:29.975Z,97.10
2018-02-17T09:19:57.474Z,96.80
2018-02-17T09:22:24.982Z,96.80
2018-02-17T09:24:52.490Z,96.60
2018-02-17T09:27:20.010Z,96.80
2018-02-17T09:29:47.502Z,96.80
2018-02-17T09:32:14.997Z,96.20
2018-02-17T09:34:43.267Z,96.30
2018-02-17T09:37:12.607Z,96.30
2018-02-17T09:39:40.175Z,96.30
2018-02-17T09:42:07.724Z,96.30
2018-02-17T09:44:35.281Z,96.10
2018-02-17T09:47:02.860Z,96.40
2018-02-17T09:49:30.350Z,96.30
2018-02-17T09:51:57.855Z,96.00
2018-02-17T09:54:25.693Z,96.00
2018-02-17T09:56:53.202Z,95.70
2018-02-17T09:59:20.690Z,95.50
2018-02-17T10:01:49.720Z,95.20
2018-02-17T10:04:17.242Z,95.20
2018-02-17T10:06:44.828Z,95.30
2018-02-17T10:09:13.101Z,94.90
2018-02-17T10:11:41.362Z,95.10
2018-02-17T10:14:08.981Z,94.80
2018-02-17T10:16:36.487Z,94.90
2018-02-17T10:20:33.386Z,94.10
2018-02-17T10:23:00.931Z,94.20
2018-02-17T10:25:28.486Z,94.20
2018-02-17T10:27:56.759Z,93.90
2018-02-17T10:30:25.116Z,93.40
2018-02-17T10:32:53.426Z,93.30
2018-02-17T10:35:20.998Z,93.30
2018-02-17T10:37:48.539Z,93.00
2018-02-17T10:40:16.070Z,92.70
2018-02-17T10:42:43.576Z,92.70
2018-02-17T10:45:11.071Z,92.80
2018-02-17T10:47:38.597Z,92.30
2018-02-17T10:50:06.094Z,92.50
2018-02-17T10:52:33.630Z,92.00
2018-02-17T10:55:01.138Z,92.10
2018-02-17T10:57:29.395Z,92.20
2018-02-17T10:59:56.899Z,91.90
2018-02-17T11:02:24.408Z,91.60
2018-02-17T11:04:51.925Z,91.50
2018-02-17T11:07:19.423Z,91.50
2018-02-17T11:09:46.918Z,91.40
2018-02-17T11:12:15.282Z,91.40
2018-02-17T11:14:43.546Z,91.10
2018-02-17T11:17:11.055Z,91.10
2018-02-17T11:19:38.550Z,91.30
2018-02-17T11:22:06.056Z,91.20
2018-02-17T11:24:33.570Z,90.50
2018-02-17T11:27:01.068Z,90.70
2018-02-17T11:29:29.330Z,90.00
2018-02-17T11:31:57.590Z,90.00
2018-02-17T11:34:25.095Z,90.00
2018-02-17T11:36:52.606Z,90.40
2018-02-17T11:39:20.119Z,90.30
2018-02-17T11:41:47.616Z,90.40
2018-02-17T11:44:15.115Z,89.60
2018-02-17T11:46:43.386Z,89.70
2018-02-17T11:49:11.655Z,90.00
2018-02-17T11:51:39.939Z,89.30
2018-02-17T11:54:08.195Z,89.50
2018-02-17T11:56:35.712Z,89.40
2018-02-17T11:59:03.212Z,89.00
2018-02-17T12:01:30.702Z,88.60
2018-02-17T12:03:58.230Z,88.00
2018-02-17T12:06:25.726Z,88.10
2018-02-17T12:08:53.255Z,87.60
2018-02-17T12:11:20.775Z,87.00
2018-02-17T12:13:48.291Z,87.60
2018-02-17T12:16:16.557Z,86.20
2018-02-17T12:18:44.821Z,86.80
2018-02-17T12:21:12.414Z,86.70
2018-02-17T12:23:39.944Z,86.00
2018-02-17T12:26:07.449Z,85.20
2018-02-17T12:28:35.046Z,85.00
2018-02-17T12:31:02.556Z,85.60
2018-02-17T12:33:30.072Z,85.00
2018-02-17T12:35:57.564Z,85.30
2018-02-17T12:38:25.839Z,83.50
2018-02-17T12:40:54.102Z,84.00
2018-02-17T12:43:22.380Z,84.30
2018-02-17T12:45:50.639Z,83.10
2018-02-17T12:48:18.155Z,83.10
2018-02-17T12:50:45.734Z,83.50
2018-02-17T12:53:13.223Z,83.70
2018-02-17T12:55:40.730Z,82.70
2018-02-17T12:58:08.248Z,82.60
2018-02-17T13:00:35.754Z,83.90
2018-02-17T13:03:03.242Z,82.40
2018-02-17T13:05:30.743Z,82.50
2018-02-17T13:07:58.262Z,82.00
2018-02-17T13:10:25.772Z,81.10
2018-02-17T13:12:53.285Z,81.20
2018-02-17T13:15:20.773Z,81.50
2018-02-17T13:17:49.045Z,79.30
2018-02-17T13:20:17.324Z,79.20
2018-02-17T13:22:45.594Z,79.20
2018-02-17T13:25:14.014Z,78.90
2018-02-17T13:27:41.536Z,78.80
2018-02-17T13:30:09.825Z,79.60
2018-02-17T13:32:37.342Z,79.60
2018-02-17T13:35:04.865Z,79.60
2018-02-17T13:37:32.362Z,78.60
2018-02-17T13:39:59.871Z,78.00
2018-02-17T13:42:27.375Z,77.90
2018-02-17T13:44:54.890Z,77.40
2018-02-17T13:47:22.398Z,77.60
2018-02-17T13:49:49.914Z,77.80
2018-02-17T13:52:17.422Z,78.10
2018-02-17T13:54:45.029Z,78.50
2018-02-17T13:57:12.574Z,76.90
2018-02-17T13:59:40.102Z,76.30
2018-02-17T14:02:07.631Z,75.80
2018-02-17T14:04:35.126Z,74.30
2018-02-17T14:07:02.762Z,71.80
2018-02-17T14:09:30.265Z,71.10
2018-02-17T14:11:58.541Z,70.70
2018-02-17T14:14:26.810Z,71.50
2018-02-17T14:16:55.086Z,72.10
2018-02-17T14:19:23.387Z,73.90
2018-02-17T14:21:50.924Z,73.90
2018-02-17T14:24:19.186Z,75.70
2018-02-17T14:26:46.706Z,75.70
2018-02-17T14:29:14.204Z,75.00
2018-02-17T14:31:41.715Z,75.30
2018-02-17T14:34:09.252Z,75.40
2018-02-17T14:36:36.782Z,75.80
2018-02-17T14:39:04.292Z,75.80
2018-02-17T14:41:31.819Z,76.50
2018-02-17T14:44:00.098Z,77.90
2018-02-17T14:46:28.359Z,78.10
2018-02-17T14:48:55.915Z,78.10
2018-02-17T14:51:23.410Z,77.90
2018-02-17T14:53:50.922Z,78.10
2018-02-17T14:56:18.441Z,77.80
2018-02-17T14:58:45.964Z,78.40
2018-02-17T15:01:14.263Z,78.30
2018-02-17T15:03:41.789Z,78.30
2018-02-17T15:06:10.075Z,78.50
2018-02-17T15:08:39.362Z,78.10
2018-02-17T15:11:06.859Z,78.10
2018-02-17T15:13:34.411Z,78.80
2018-02-17T15:16:02.675Z,80.10
2018-02-17T15:18:30.961Z,80.10
2018-02-17T15:20:59.226Z,80.20
2018-02-17T15:23:27.503Z,80.80
2018-02-17T15:25:55.035Z,80.90
2018-02-17T15:28:22.559Z,81.00
2018-02-17T15:30:50.065Z,79.90
2018-02-17T15:33:17.572Z,80.10
2018-02-17T15:35:45.074Z,80.90
2018-02-17T15:38:12.584Z,81.30
2018-02-17T15:40:40.114Z,80.90
2018-02-17T15:43:08.430Z,80.30
2018-02-17T15:45:35.934Z,80.20
2018-02-17T15:48:03.458Z,80.30
2018-02-17T15:50:30.946Z,80.10
2018-02-17T15:52:58.474Z,80.20
2018-02-17T15:55:25.974Z,79.50
2018-02-17T15:57:53.470Z,77.90
2018-02-17T16:00:20.987Z,78.40
2018-02-17T16:02:48.477Z,79.10
